createdAt,value
2023-09-23T00:00:15.026Z,16.56
2023-09-23T00:03:02.914Z,16.42
2023-09-23T00:05:33.403Z,16.37
2023-09-23T00:08:01.259Z,16.37
2023-09-23T00:10:28.993Z,16.38
2023-09-23T00:12:56.955Z,16.36
2023-09-23T00:15:25.080Z,16.32
2023-09-23T00:17:55.304Z,16.30
2023-09-23T00:20:23.626Z,16.28
2023-09-23T00:22:54.036Z,16.26
2023-09-23T00:25:21.982Z,16.27
2023-09-23T00:27:50.341Z,16.25
2023-09-23T00:30:19.201Z,16.19
2023-09-23T00:32:46.971Z,16.14
2023-09-23T00:35:14.785Z,16.13
2023-09-23T00:37:45.033Z,16.13
2023-09-23T00:40:17.985Z,16.09
2023-09-23T00:42:48.444Z,16.06
2023-09-23T00:45:24.035Z,16.05
2023-09-23T00:47:53.295Z,16.04
2023-09-23T00:50:21.432Z,16.04
2023-09-23T00:52:50.629Z,16.04
2023-09-23T00:55:18.953Z,16.05
2023-09-23T00:57:50.227Z,16.05
2023-09-23T01:00:28.461Z,16.02
2023-09-23T01:02:57.481Z,15.98
2023-09-23T01:05:28.812Z,15.93
2023-09-23T01:07:57.515Z,15.89
2023-09-23T01:10:25.344Z,15.89
2023-09-23T01:13:05.022Z,15.91
2023-09-23T01:15:32.972Z,15.93
2023-09-23T01:18:00.604Z,15.89
2023-09-23T01:20:28.218Z,15.86
2023-09-23T01:22:56.171Z,15.79
2023-09-23T01:25:26.169Z,15.73
2023-09-23T01:27:54.462Z,15.71
2023-09-23T01:30:23.029Z,15.69
2023-09-23T01:32:51.779Z,15.67
2023-09-23T01:35:22.000Z,15.69
2023-09-23T01:37:51.751Z,15.68
2023-09-23T01:40:19.615Z,15.64
2023-09-23T01:42:47.803Z,15.56
2023-09-23T01:45:15.873Z,15.48
2023-09-23T01:47:45.659Z,15.47
2023-09-23T01:50:15.516Z,15.51
2023-09-23T01:52:43.381Z,15.55
2023-09-23T01:55:14.032Z,15.52
2023-09-23T01:57:41.748Z,15.46
2023-09-23T02:00:16.192Z,15.42
2023-09-23T02:02:44.026Z,15.35
2023-09-23T02:05:11.986Z,15.31
2023-09-23T02:07:41.193Z,15.31
2023-09-23T02:10:10.163Z,15.33
2023-09-23T02:12:37.940Z,15.35
2023-09-23T02:15:07.471Z,15.38
2023-09-23T02:17:37.576Z,15.38
2023-09-23T02:20:11.517Z,15.39
2023-09-23T02:22:39.208Z,15.41
2023-09-23T02:25:06.889Z,15.42
2023-09-23T02:27:35.141Z,15.44
2023-09-23T02:30:03.626Z,15.44
2023-09-23T02:32:31.873Z,15.44
2023-09-23T02:34:59.738Z,15.43
2023-09-23T02:37:28.576Z,15.37
2023-09-23T02:39:56.186Z,15.32
2023-09-23T02:42:23.897Z,15.34
2023-09-23T02:44:51.538Z,15.36
2023-09-23T02:47:19.747Z,15.39
2023-09-23T02:49:47.584Z,15.40
2023-09-23T02:52:15.786Z,15.41
2023-09-23T02:54:43.478Z,15.42
2023-09-23T02:57:13.570Z,15.41
2023-09-23T02:59:43.298Z,15.41
2023-09-23T03:02:11.346Z,15.39
2023-09-23T03:04:39.198Z,15.39
2023-09-23T03:07:08.216Z,15.37
2023-09-23T03:09:36.006Z,15.37
2023-09-23T03:12:06.087Z,15.33
2023-09-23T03:14:44.601Z,15.29
2023-09-23T03:17:14.474Z,15.22
2023-09-23T03:19:42.442Z,15.19
2023-09-23T03:22:10.346Z,15.16
2023-09-23T03:24:38.557Z,15.11
2023-09-23T03:27:06.926Z,15.04
2023-09-23T03:29:35.217Z,15.05
2023-09-23T03:32:03.070Z,15.03
2023-09-23T03:34:30.841Z,15.02
2023-09-23T03:37:00.126Z,14.98
2023-09-23T03:39:40.795Z,14.93
2023-09-23T03:42:09.688Z,14.87
2023-09-23T03:44:37.867Z,14.84
2023-09-23T03:47:05.559Z,14.82
2023-09-23T03:49:33.408Z,14.78
2023-09-23T03:52:01.349Z,14.71
2023-09-23T03:54:29.871Z,14.68
2023-09-23T03:56:58.289Z,14.69
2023-09-23T03:59:28.303Z,14.74
2023-09-23T04:01:57.369Z,14.76
2023-09-23T04:04:25.410Z,14.68
2023-09-23T04:06:53.384Z,14.50
2023-09-23T04:09:24.433Z,14.41
2023-09-23T04:11:53.806Z,14.40
2023-09-23T04:14:21.904Z,14.45
2023-09-23T04:16:49.564Z,14.50
2023-09-23T04:19:17.199Z,14.52
2023-09-23T04:21:44.818Z,14.57
2023-09-23T04:24:12.489Z,14.61
2023-09-23T04:26:40.239Z,14.65
2023-09-23T04:29:08.810Z,14.68
2023-09-23T04:31:36.724Z,14.67
2023-09-23T04:34:04.350Z,14.65
2023-09-23T04:36:32.145Z,14.66
2023-09-23T04:38:59.967Z,14.69
2023-09-23T04:41:27.616Z,14.73
2023-09-23T04:43:55.241Z,14.74
2023-09-23T04:46:23.206Z,14.75
2023-09-23T04:48:51.172Z,14.81
2023-09-23T04:51:18.854Z,14.89
2023-09-23T04:53:46.682Z,14.99
2023-09-23T04:56:18.590Z,15.03
2023-09-23T04:58:46.424Z,15.06
2023-09-23T05:01:15.680Z,15.10
2023-09-23T05:03:43.770Z,15.13
2023-09-23T05:06:12.133Z,15.16
2023-09-23T05:08:42.347Z,15.16
2023-09-23T05:11:13.247Z,15.16
2023-09-23T05:13:42.225Z,15.17
2023-09-23T05:16:10.589Z,15.23
2023-09-23T05:18:39.816Z,15.32
2023-09-23T05:21:10.572Z,15.36
2023-09-23T05:23:38.820Z,15.39
2023-09-23T05:26:08.484Z,15.41
2023-09-23T05:28:36.714Z,15.42
2023-09-23T05:31:06.747Z,15.43
2023-09-23T05:33:34.452Z,15.44
2023-09-23T05:36:02.202Z,15.43
2023-09-23T05:38:29.940Z,15.39
2023-09-23T05:40:58.186Z,15.40
2023-09-23T05:43:26.029Z,15.39
2023-09-23T05:45:53.678Z,15.30
2023-09-23T05:48:22.048Z,15.18
2023-09-23T05:50:50.673Z,15.10
2023-09-23T05:53:18.476Z,15.06
2023-09-23T05:55:46.932Z,15.06
2023-09-23T05:58:14.704Z,15.07
2023-09-23T06:00:42.477Z,15.06
2023-09-23T06:03:10.273Z,15.02
2023-09-23T06:05:39.794Z,14.98
2023-09-23T06:08:07.709Z,14.96
2023-09-23T06:10:38.108Z,14.98
2023-09-23T06:13:06.996Z,15.04
2023-09-23T06:15:35.134Z,15.10
2023-09-23T06:18:02.962Z,15.14
2023-09-23T06:20:30.849Z,15.18
2023-09-23T06:22:58.530Z,15.21
2023-09-23T06:25:26.395Z,15.25
2023-09-23T06:27:54.210Z,15.31
2023-09-23T06:30:21.969Z,15.36
2023-09-23T06:32:49.745Z,15.40
2023-09-23T06:35:17.777Z,15.42
2023-09-23T06:37:45.889Z,15.46
2023-09-23T06:40:13.875Z,15.54
2023-09-23T06:42:41.852Z,15.63
2023-09-23T06:45:10.889Z,15.63
2023-09-23T06:47:38.979Z,15.65
2023-09-23T06:50:06.914Z,15.70
2023-09-23T06:52:35.057Z,15.74
2023-09-23T06:55:02.711Z,15.78
2023-09-23T06:57:31.217Z,15.86
2023-09-23T06:59:58.834Z,15.96
2023-09-23T07:02:26.629Z,16.05
2023-09-23T07:04:54.585Z,16.14
2023-09-23T07:07:22.212Z,16.20
2023-09-23T07:09:52.503Z,16.25
2023-09-23T07:12:22.251Z,16.29
2023-09-23T07:14:50.830Z,16.33
2023-09-23T07:17:19.126Z,16.36
2023-09-23T07:19:47.295Z,16.41
2023-09-23T07:22:14.918Z,16.46
2023-09-23T07:24:42.734Z,16.49
2023-09-23T07:27:10.474Z,16.52
2023-09-23T07:29:40.925Z,16.58
2023-09-23T07:32:08.645Z,16.65
2023-09-23T07:34:36.581Z,16.71
2023-09-23T07:37:04.744Z,16.73
2023-09-23T07:39:32.449Z,16.79
2023-09-23T07:42:00.456Z,16.84
2023-09-23T07:44:28.192Z,16.89
2023-09-23T07:46:55.863Z,16.94
2023-09-23T07:49:23.810Z,17.02
2023-09-23T07:51:51.712Z,17.09
2023-09-23T07:54:20.791Z,17.16
2023-09-23T07:56:48.674Z,17.24
2023-09-23T07:59:16.351Z,17.29
2023-09-23T08:01:44.148Z,17.34
2023-09-23T08:04:12.132Z,17.39
2023-09-23T08:06:39.777Z,17.44
2023-09-23T08:09:07.485Z,17.47
2023-09-23T08:11:35.533Z,17.52
2023-09-23T08:14:03.209Z,17.61
2023-09-23T08:16:30.905Z,17.71
2023-09-23T08:18:58.926Z,17.81
2023-09-23T08:21:26.558Z,17.84
2023-09-23T08:23:54.328Z,17.85
2023-09-23T08:26:22.344Z,17.86
2023-09-23T08:28:50.014Z,17.88
2023-09-23T08:31:18.310Z,17.89
2023-09-23T08:33:47.082Z,17.89
2023-09-23T08:36:14.939Z,17.90
2023-09-23T08:38:43.053Z,17.91
2023-09-23T08:41:10.788Z,17.91
2023-09-23T08:43:38.821Z,17.91
2023-09-23T08:46:07.222Z,17.95
2023-09-23T08:48:35.032Z,17.95
2023-09-23T08:51:03.490Z,17.90
2023-09-23T08:53:32.389Z,17.78
2023-09-23T08:56:00.410Z,17.64
2023-09-23T08:58:28.533Z,17.52
2023-09-23T09:00:58.658Z,17.40
2023-09-23T09:03:27.121Z,17.22
2023-09-23T09:05:54.838Z,17.07
2023-09-23T09:08:22.648Z,16.97
2023-09-23T09:10:50.474Z,16.88
2023-09-23T09:13:18.654Z,16.89
2023-09-23T09:15:46.396Z,16.88
2023-09-23T09:18:14.347Z,16.88
2023-09-23T09:20:43.439Z,16.90
2023-09-23T09:23:11.543Z,16.89
2023-09-23T09:25:39.608Z,16.83
2023-09-23T09:28:07.382Z,16.80
2023-09-23T09:30:35.003Z,16.78
2023-09-23T09:33:02.801Z,16.79
2023-09-23T09:35:30.648Z,16.79
2023-09-23T09:38:11.176Z,16.72
2023-09-23T09:40:45.097Z,16.72
2023-09-23T09:43:12.904Z,16.77
2023-09-23T09:45:45.829Z,16.81
2023-09-23T09:48:13.626Z,16.83
2023-09-23T09:50:41.374Z,16.84
2023-09-23T09:53:10.153Z,16.85
2023-09-23T09:55:38.163Z,16.84
2023-09-23T09:58:05.896Z,16.85
2023-09-23T10:00:35.103Z,16.81
2023-09-23T10:03:03.195Z,16.82
2023-09-23T10:05:31.250Z,16.84
2023-09-23T10:07:59.069Z,16.85
2023-09-23T10:10:26.851Z,16.86
2023-09-23T10:12:55.781Z,16.88
2023-09-23T10:15:23.509Z,16.87
2023-09-23T10:17:51.367Z,16.88
2023-09-23T10:20:19.320Z,16.88
2023-09-23T10:22:47.751Z,16.90
2023-09-23T10:25:15.543Z,16.87
2023-09-23T10:27:43.556Z,16.80
2023-09-23T10:30:11.919Z,16.69
2023-09-23T10:32:39.786Z,16.58
2023-09-23T10:35:07.529Z,16.51
2023-09-23T10:37:36.354Z,16.43
2023-09-23T10:40:10.262Z,16.34
2023-09-23T10:42:39.038Z,16.33
2023-09-23T10:45:06.713Z,16.26
2023-09-23T10:47:37.087Z,16.17
2023-09-23T10:50:07.867Z,16.10
2023-09-23T10:52:35.769Z,16.05
2023-09-23T10:55:03.866Z,16.02
2023-09-23T10:57:34.392Z,16.09
2023-09-23T11:00:02.447Z,16.19
2023-09-23T11:02:31.409Z,16.23
2023-09-23T11:04:59.752Z,16.24
2023-09-23T11:07:28.250Z,16.29
2023-09-23T11:09:56.288Z,16.33
2023-09-23T11:12:29.316Z,16.39
2023-09-23T11:14:56.965Z,16.43
2023-09-23T11:17:27.176Z,16.47
2023-09-23T11:19:55.081Z,16.55
2023-09-23T11:22:22.768Z,16.62
2023-09-23T11:24:51.158Z,16.74
2023-09-23T11:27:19.016Z,16.82
2023-09-23T11:29:46.638Z,16.90
2023-09-23T11:32:14.315Z,16.97
2023-09-23T11:34:41.968Z,17.08
2023-09-23T11:37:09.841Z,17.22
2023-09-23T11:39:38.774Z,17.35
2023-09-23T11:42:06.482Z,17.46
2023-09-23T11:44:35.862Z,17.52
2023-09-23T11:47:03.851Z,17.55
2023-09-23T11:49:31.696Z,17.57
2023-09-23T11:52:00.354Z,17.54
2023-09-23T11:54:30.243Z,17.47
2023-09-23T11:56:58.050Z,17.39
2023-09-23T11:59:25.981Z,17.23
2023-09-23T12:01:53.654Z,17.13
2023-09-23T12:04:41.446Z,17.08
2023-09-23T12:07:09.769Z,17.02
2023-09-23T12:09:38.430Z,17.00
2023-09-23T12:12:06.654Z,16.91
2023-09-23T12:14:34.355Z,16.85
2023-09-23T12:17:01.979Z,16.79
2023-09-23T12:19:30.008Z,16.72
2023-09-23T12:21:57.626Z,16.70
2023-09-23T12:24:25.348Z,16.67
2023-09-23T12:26:53.068Z,16.66
2023-09-23T12:29:20.695Z,16.64
2023-09-23T12:31:48.364Z,16.56
2023-09-23T12:34:16.126Z,16.42
2023-09-23T12:36:44.229Z,16.30
2023-09-23T12:39:12.284Z,16.15
2023-09-23T12:41:40.128Z,16.12
2023-09-23T12:44:08.147Z,16.13
2023-09-23T12:46:37.104Z,16.12
2023-09-23T12:49:04.816Z,15.99
2023-09-23T12:51:33.028Z,15.88
2023-09-23T12:54:00.879Z,15.75
2023-09-23T12:56:28.616Z,15.70
2023-09-23T12:58:58.018Z,15.62
2023-09-23T13:01:25.925Z,15.52
2023-09-23T13:03:53.850Z,15.41
2023-09-23T13:06:21.609Z,15.31
2023-09-23T13:08:49.377Z,15.24
2023-09-23T13:11:17.869Z,15.17
2023-09-23T13:13:51.138Z,15.11
2023-09-23T13:16:19.562Z,15.06
2023-09-23T13:18:47.568Z,15.01
2023-09-23T13:21:15.475Z,14.93
2023-09-23T13:23:43.479Z,14.77
2023-09-23T13:26:11.309Z,14.62
2023-09-23T13:28:40.885Z,14.57
2023-09-23T13:31:08.660Z,14.57
2023-09-23T13:33:36.549Z,14.53
2023-09-23T13:36:05.670Z,14.45
2023-09-23T13:38:33.576Z,14.38
2023-09-23T13:41:02.676Z,14.34
2023-09-23T13:43:30.386Z,14.31
2023-09-23T13:45:58.089Z,14.33
2023-09-23T13:48:26.048Z,14.35
2023-09-23T13:50:53.953Z,14.35
2023-09-23T13:53:22.554Z,14.34
2023-09-23T13:55:50.972Z,14.31
2023-09-23T13:58:18.768Z,14.30
2023-09-23T14:00:47.893Z,14.29
2023-09-23T14:03:19.136Z,14.28
2023-09-23T14:05:47.413Z,14.27
2023-09-23T14:08:15.205Z,14.24
2023-09-23T14:10:43.065Z,14.20
2023-09-23T14:13:10.705Z,14.17
2023-09-23T14:15:38.330Z,14.13
2023-09-23T14:18:08.598Z,14.13
2023-09-23T14:20:37.058Z,14.15
2023-09-23T14:23:04.917Z,14.15
2023-09-23T14:25:32.622Z,14.13
2023-09-23T14:28:00.326Z,14.11
2023-09-23T14:30:27.989Z,14.09
2023-09-23T14:32:55.744Z,14.06
2023-09-23T14:35:23.931Z,14.05
2023-09-23T14:37:51.836Z,14.06
2023-09-23T14:40:19.572Z,14.05
2023-09-23T14:42:47.180Z,14.06
2023-09-23T14:45:16.913Z,14.06
2023-09-23T14:47:46.512Z,14.08
2023-09-23T14:50:14.410Z,14.10
2023-09-23T14:52:42.178Z,14.11
2023-09-23T14:55:09.892Z,14.14
2023-09-23T14:57:37.533Z,14.15
2023-09-23T15:00:06.692Z,14.15
2023-09-23T15:02:34.647Z,14.19
2023-09-23T15:05:02.551Z,14.23
2023-09-23T15:07:30.497Z,14.24
2023-09-23T15:09:58.748Z,14.24
2023-09-23T15:12:26.406Z,14.23
2023-09-23T15:14:54.699Z,14.22
2023-09-23T15:17:22.637Z,14.21
2023-09-23T15:19:50.602Z,14.18
2023-09-23T15:22:18.300Z,14.16
2023-09-23T15:24:45.987Z,14.15
2023-09-23T15:27:15.666Z,14.15
2023-09-23T15:29:43.358Z,14.14
2023-09-23T15:32:11.328Z,14.13
2023-09-23T15:34:39.002Z,14.14
2023-09-23T15:37:06.707Z,14.19
2023-09-23T15:39:34.397Z,14.20
2023-09-23T15:42:02.880Z,14.20
2023-09-23T15:44:30.729Z,14.20
2023-09-23T15:46:59.182Z,14.21
2023-09-23T15:49:28.175Z,14.18
2023-09-23T15:51:56.075Z,14.15
2023-09-23T15:54:24.931Z,14.14
2023-09-23T15:56:56.612Z,14.11
2023-09-23T15:59:28.451Z,14.14
2023-09-23T16:01:56.442Z,14.17
2023-09-23T16:04:24.155Z,14.20
2023-09-23T16:06:52.092Z,14.17
2023-09-23T16:09:20.126Z,14.16
2023-09-23T16:11:47.808Z,14.16
2023-09-23T16:14:15.850Z,14.15
2023-09-23T16:16:43.644Z,14.16
2023-09-23T16:19:11.631Z,14.16
2023-09-23T16:21:39.873Z,14.14
2023-09-23T16:24:07.545Z,14.15
2023-09-23T16:26:35.323Z,14.14
2023-09-23T16:29:04.606Z,14.08
2023-09-23T16:31:32.497Z,14.05
2023-09-23T16:34:00.381Z,14.08
2023-09-23T16:36:28.144Z,14.07
2023-09-23T16:38:56.000Z,14.03
2023-09-23T16:41:23.691Z,13.96
2023-09-23T16:43:51.394Z,13.90
2023-09-23T16:46:19.130Z,13.88
2023-09-23T16:48:47.022Z,13.84
2023-09-23T16:51:14.992Z,13.80
2023-09-23T16:53:42.788Z,13.77
2023-09-23T16:56:10.549Z,13.74
2023-09-23T16:58:38.215Z,13.72
2023-09-23T17:01:06.858Z,13.69
2023-09-23T17:03:35.288Z,13.67
2023-09-23T17:06:03.270Z,13.65
2023-09-23T17:08:30.949Z,13.64
2023-09-23T17:10:58.653Z,13.59
2023-09-23T17:13:26.619Z,13.54
2023-09-23T17:15:55.347Z,13.49
2023-09-23T17:18:24.121Z,13.43
2023-09-23T17:20:52.054Z,13.36
2023-09-23T17:23:20.042Z,13.34
2023-09-23T17:25:48.736Z,13.32
2023-09-23T17:28:16.492Z,13.30
2023-09-23T17:30:44.140Z,13.27
2023-09-23T17:33:12.573Z,13.23
2023-09-23T17:35:40.595Z,13.17
2023-09-23T17:38:08.287Z,13.14
2023-09-23T17:40:35.919Z,13.15
2023-09-23T17:43:03.639Z,13.11
2023-09-23T17:45:31.500Z,13.07
2023-09-23T17:47:59.360Z,13.02
2023-09-23T17:50:27.236Z,12.96
2023-09-23T17:52:55.274Z,12.90
2023-09-23T17:55:23.067Z,12.86
2023-09-23T17:57:50.811Z,12.81
2023-09-23T18:00:18.933Z,12.79
2023-09-23T18:02:47.009Z,12.79
2023-09-23T18:05:15.362Z,12.80
2023-09-23T18:07:43.196Z,12.77
2023-09-23T18:10:10.852Z,12.74
2023-09-23T18:12:38.729Z,12.70
2023-09-23T18:15:07.067Z,12.68
2023-09-23T18:17:37.418Z,12.66
2023-09-23T18:20:05.378Z,12.64
2023-09-23T18:22:33.055Z,12.61
2023-09-23T18:25:00.770Z,12.60
2023-09-23T18:27:30.387Z,12.59
2023-09-23T18:29:58.083Z,12.56
2023-09-23T18:32:25.802Z,12.57
2023-09-23T18:34:53.988Z,12.58
2023-09-23T18:37:21.906Z,12.57
2023-09-23T18:39:49.554Z,12.58
2023-09-23T18:42:17.257Z,12.59
2023-09-23T18:44:46.178Z,12.63
2023-09-23T18:47:13.779Z,12.66
2023-09-23T18:49:41.432Z,12.67
2023-09-23T18:52:09.162Z,12.67
2023-09-23T18:54:36.733Z,12.69
2023-09-23T18:57:04.662Z,12.69
2023-09-23T18:59:32.321Z,12.70
2023-09-23T19:02:00.288Z,12.71
2023-09-23T19:04:28.037Z,12.72
2023-09-23T19:06:55.829Z,12.74
2023-09-23T19:09:23.695Z,12.77
2023-09-23T19:11:51.419Z,12.78
2023-09-23T19:14:21.584Z,12.77
2023-09-23T19:16:50.934Z,12.77
2023-09-23T19:19:19.080Z,12.78
2023-09-23T19:21:46.727Z,12.80
2023-09-23T19:24:14.347Z,12.79
2023-09-23T19:26:55.451Z,12.79
2023-09-23T19:29:24.655Z,12.79
2023-09-23T19:31:54.297Z,12.76
2023-09-23T19:34:27.982Z,12.75
2023-09-23T19:36:57.065Z,12.72
2023-09-23T19:39:26.793Z,12.69
2023-09-23T19:41:55.406Z,12.70
2023-09-23T19:44:23.364Z,12.70
2023-09-23T19:46:51.714Z,12.68
2023-09-23T19:49:19.543Z,12.69
2023-09-23T19:51:47.264Z,12.68
2023-09-23T19:54:14.937Z,12.66
2023-09-23T19:56:44.620Z,12.64
2023-09-23T19:59:12.467Z,12.61
2023-09-23T20:01:40.097Z,12.59
2023-09-23T20:04:07.973Z,12.56
2023-09-23T20:06:36.133Z,12.54
2023-09-23T20:09:04.695Z,12.54
2023-09-23T20:11:32.391Z,12.55
2023-09-23T20:14:00.493Z,12.56
2023-09-23T20:16:28.269Z,12.55
2023-09-23T20:18:56.012Z,12.53
2023-09-23T20:21:23.710Z,12.51
2023-09-23T20:23:52.701Z,12.48
2023-09-23T20:26:21.224Z,12.46
2023-09-23T20:28:49.772Z,12.46
2023-09-23T20:31:17.766Z,12.48
2023-09-23T20:33:45.615Z,12.49
2023-09-23T20:36:14.521Z,12.51
2023-09-23T20:38:42.272Z,12.53
2023-09-23T20:41:10.878Z,12.56
2023-09-23T20:43:39.066Z,12.55
2023-09-23T20:46:07.947Z,12.56
2023-09-23T20:48:35.693Z,12.59
2023-09-23T20:51:03.562Z,12.62
2023-09-23T20:53:33.259Z,12.63
2023-09-23T20:56:00.879Z,12.64
2023-09-23T20:58:29.050Z,12.64
2023-09-23T21:00:56.790Z,12.66
2023-09-23T21:03:24.608Z,12.68
2023-09-23T21:05:53.004Z,12.69
2023-09-23T21:08:21.621Z,12.69
2023-09-23T21:10:49.289Z,12.70
2023-09-23T21:13:18.267Z,12.66
2023-09-23T21:15:46.276Z,12.65
2023-09-23T21:18:14.043Z,12.64
2023-09-23T21:20:41.743Z,12.62
2023-09-23T21:23:09.314Z,12.60
2023-09-23T21:25:37.056Z,12.57
2023-09-23T21:28:04.836Z,12.57
2023-09-23T21:30:32.763Z,12.57
2023-09-23T21:33:00.835Z,12.56
2023-09-23T21:35:28.764Z,12.55
2023-09-23T21:37:56.488Z,12.54
2023-09-23T21:40:24.172Z,12.52
2023-09-23T21:42:52.701Z,12.51
2023-09-23T21:45:20.415Z,12.50
2023-09-23T21:47:48.482Z,12.50
2023-09-23T21:50:16.242Z,12.48
2023-09-23T21:52:44.428Z,12.50
2023-09-23T21:55:12.117Z,12.49
2023-09-23T21:57:39.879Z,12.52
2023-09-23T22:00:26.434Z,12.53
2023-09-23T22:02:55.001Z,12.55
2023-09-23T22:05:22.845Z,12.57
2023-09-23T22:07:50.755Z,12.60
2023-09-23T22:10:18.894Z,12.59
2023-09-23T22:12:46.949Z,12.58
2023-09-23T22:15:15.595Z,12.58
2023-09-23T22:17:43.849Z,12.59
2023-09-23T22:20:12.164Z,12.59
2023-09-23T22:22:39.898Z,12.58
2023-09-23T22:25:12.914Z,12.58
2023-09-23T22:27:40.588Z,12.57
2023-09-23T22:30:09.083Z,12.58
2023-09-23T22:32:36.924Z,12.60
2023-09-23T22:35:04.716Z,12.63
2023-09-23T22:37:32.281Z,12.64
2023-09-23T22:40:02.962Z,12.63
2023-09-23T22:42:30.985Z,12.62
2023-09-23T22:44:58.737Z,12.63
2023-09-23T22:47:26.737Z,12.60
2023-09-23T22:49:57.296Z,12.59
2023-09-23T22:52:27.133Z,12.58
2023-09-23T22:54:55.263Z,12.58
2023-09-23T22:57:23.194Z,12.61
2023-09-23T22:59:54.051Z,12.63
2023-09-23T23:02:21.770Z,12.64
2023-09-23T23:04:51.104Z,12.66
2023-09-23T23:07:18.979Z,12.64
2023-09-23T23:09:49.296Z,12.62
2023-09-23T23:12:18.249Z,12.63
2023-09-23T23:14:46.058Z,12.63
2023-09-23T23:17:14.979Z,12.63
2023-09-23T23:19:42.757Z,12.63
2023-09-23T23:22:10.998Z,12.65
2023-09-23T23:24:41.634Z,12.64
2023-09-23T23:27:11.592Z,12.67
2023-09-23T23:29:40.343Z,12.70
2023-09-23T23:32:08.102Z,12.71
2023-09-23T23:34:35.774Z,12.70
2023-09-23T23:37:07.080Z,12.69
2023-09-23T23:39:34.895Z,12.66
2023-09-23T23:42:05.156Z,12.67
2023-09-23T23:44:33.248Z,12.69
2023-09-23T23:47:00.960Z,12.69
2023-09-23T23:49:28.718Z,12.70
2023-09-23T23:51:56.480Z,12.72
2023-09-23T23:54:24.823Z,12.71
2023-09-23T23:56:53.217Z,12.69
2023-09-23T23:59:20.882Z,12.70
